sensor_id;sensor_type;location;lat;lon;timestamp;pressure;altitude;pressure_sealevel;temperature;humidity
71974;BME280;59840;52.122;5.404;2024-03-02T00:00:06;99914.13;;;8.59;90.92
71974;BME280;59840;52.122;5.404;2024-03-02T00:02:41;99908.34;;;8.62;89.88
71974;BME280;59840;52.122;5.404;2024-03-02T00:05:11;99918.38;;;8.65;90.63
71974;BME280;59840;52.122;5.404;2024-03-02T00:07:59;99899.97;;;8.65;90.61
71974;BME280;59840;52.122;5.404;2024-03-02T00:10:37;99908.91;;;8.69;90.15
71974;BME280;59840;52.122;5.404;2024-03-02T00:13:10;99901.56;;;8.71;89.66
71974;BME280;59840;52.122;5.404;2024-03-02T00:15:47;99915.22;;;8.73;90.06
71974;BME280;59840;52.122;5.404;2024-03-02T00:18:19;99920.78;;;8.77;90.13
71974;BME280;59840;52.122;5.404;2024-03-02T00:20:46;99927.63;;;8.78;89.82
71974;BME280;59840;52.122;5.404;2024-03-02T00:23:16;99927.63;;;8.78;90.09
71974;BME280;59840;52.122;5.404;2024-03-02T00:25:50;99949.75;;;8.82;90.35
71974;BME280;59840;52.122;5.404;2024-03-02T00:28:30;99948.97;;;8.82;89.36
71974;BME280;59840;52.122;5.404;2024-03-02T00:33:49;99969.50;;;8.85;89.68
71974;BME280;59840;52.122;5.404;2024-03-02T00:36:17;99983.97;;;8.87;89.74
71974;BME280;59840;52.122;5.404;2024-03-02T00:38:50;99986.06;;;8.85;90.37
71974;BME280;59840;52.122;5.404;2024-03-02T00:41:22;99997.09;;;8.82;90.24
71974;BME280;59840;52.122;5.404;2024-03-02T00:43:57;100014.19;;;8.80;90.88
71974;BME280;59840;52.122;5.404;2024-03-02T00:46:24;100013.09;;;8.76;91.53
71974;BME280;59840;52.122;5.404;2024-03-02T00:51:22;100013.03;;;8.65;92.22
71974;BME280;59840;52.122;5.404;2024-03-02T00:53:50;100013.53;;;8.62;94.02
71974;BME280;59840;52.122;5.404;2024-03-02T00:56:21;100016.13;;;8.57;94.14
71974;BME280;59840;52.122;5.404;2024-03-02T00:58:48;100016.06;;;8.52;94.85
71974;BME280;59840;52.122;5.404;2024-03-02T01:01:14;100027.03;;;8.44;96.28
71974;BME280;59840;52.122;5.404;2024-03-02T01:03:43;100018.31;;;8.38;96.97
71974;BME280;59840;52.122;5.404;2024-03-02T01:06:11;100026.94;;;8.34;97.31
71974;BME280;59840;52.122;5.404;2024-03-02T01:08:38;100026.34;;;8.27;98.03
71974;BME280;59840;52.122;5.404;2024-03-02T01:11:05;100027.09;;;8.22;98.53
71974;BME280;59840;52.122;5.404;2024-03-02T01:13:32;100028.38;;;8.20;99.12
71974;BME280;59840;52.122;5.404;2024-03-02T01:15:59;100032.53;;;8.16;99.74
71974;BME280;59840;52.122;5.404;2024-03-02T01:18:26;100023.56;;;8.12;100.00
71974;BME280;59840;52.122;5.404;2024-03-02T01:20:52;100013.47;;;8.03;100.00
71974;BME280;59840;52.122;5.404;2024-03-02T01:23:24;100015.53;;;7.96;100.00
71974;BME280;59840;52.122;5.404;2024-03-02T01:25:51;100032.03;;;7.92;100.00
71974;BME280;59840;52.122;5.404;2024-03-02T01:28:19;100040.63;;;7.87;100.00
71974;BME280;59840;52.122;5.404;2024-03-02T01:30:47;100041.69;;;7.86;100.00
71974;BME280;59840;52.122;5.404;2024-03-02T01:33:16;100032.69;;;7.82;100.00
71974;BME280;59840;52.122;5.404;2024-03-02T01:35:43;100036.59;;;7.80;100.00
71974;BME280;59840;52.122;5.404;2024-03-02T01:38:10;100029.47;;;7.75;100.00
71974;BME280;59840;52.122;5.404;2024-03-02T01:40:37;100036.00;;;7.72;100.00
71974;BME280;59840;52.122;5.404;2024-03-02T01:43:05;100032.56;;;7.72;100.00
71974;BME280;59840;52.122;5.404;2024-03-02T01:45:32;100036.47;;;7.69;100.00
71974;BME280;59840;52.122;5.404;2024-03-02T01:47:59;100046.44;;;7.67;100.00
71974;BME280;59840;52.122;5.404;2024-03-02T01:50:27;100049.06;;;7.67;100.00
71974;BME280;59840;52.122;5.404;2024-03-02T01:52:55;100049.06;;;7.67;100.00
71974;BME280;59840;52.122;5.404;2024-03-02T01:55:22;100042.47;;;7.65;100.00
71974;BME280;59840;52.122;5.404;2024-03-02T01:57:49;100038.25;;;7.64;100.00
71974;BME280;59840;52.122;5.404;2024-03-02T02:00:19;100046.09;;;7.59;100.00
71974;BME280;59840;52.122;5.404;2024-03-02T02:02:48;100045.28;;;7.58;100.00
71974;BME280;59840;52.122;5.404;2024-03-02T02:05:15;100048.94;;;7.57;100.00
71974;BME280;59840;52.122;5.404;2024-03-02T02:07:41;100028.69;;;7.53;100.00
71974;BME280;59840;52.122;5.404;2024-03-02T02:10:12;100043.88;;;7.51;100.00
71974;BME280;59840;52.122;5.404;2024-03-02T02:12:39;100047.53;;;7.50;100.00
71974;BME280;59840;52.122;5.404;2024-03-02T02:15:29;100058.03;;;7.50;100.00
71974;BME280;59840;52.122;5.404;2024-03-02T02:17:57;100061.69;;;7.49;100.00
71974;BME280;59840;52.122;5.404;2024-03-02T02:20:25;100044.34;;;7.48;100.00
71974;BME280;59840;52.122;5.404;2024-03-02T02:23:01;100047.69;;;7.43;100.00
71974;BME280;59840;52.122;5.404;2024-03-02T02:25:29;100050.56;;;7.42;100.00
71974;BME280;59840;52.122;5.404;2024-03-02T02:27:57;100038.72;;;7.39;100.00
71974;BME280;59840;52.122;5.404;2024-03-02T02:30:33;100043.09;;;7.33;100.00
71974;BME280;59840;52.122;5.404;2024-03-02T02:33:00;100041.28;;;7.34;100.00
71974;BME280;59840;52.122;5.404;2024-03-02T02:35:27;100039.69;;;7.33;100.00
71974;BME280;59840;52.122;5.404;2024-03-02T02:37:55;100040.97;;;7.30;100.00
71974;BME280;59840;52.122;5.404;2024-03-02T02:40:22;100063.22;;;7.28;100.00
71974;BME280;59840;52.122;5.404;2024-03-02T02:42:49;100059.03;;;7.27;100.00
71974;BME280;59840;52.122;5.404;2024-03-02T02:45:18;100060.31;;;7.24;100.00
71974;BME280;59840;52.122;5.404;2024-03-02T02:47:45;100053.47;;;7.23;100.00
71974;BME280;59840;52.122;5.404;2024-03-02T02:50:12;100056.91;;;7.24;100.00
71974;BME280;59840;52.122;5.404;2024-03-02T02:52:42;100056.03;;;7.18;100.00
71974;BME280;59840;52.122;5.404;2024-03-02T02:55:10;100052.84;;;7.16;100.00
71974;BME280;59840;52.122;5.404;2024-03-02T02:57:39;100059.06;;;7.10;100.00
71974;BME280;59840;52.122;5.404;2024-03-02T03:00:08;100072.41;;;7.09;100.00
71974;BME280;59840;52.122;5.404;2024-03-02T03:02:43;100063.19;;;7.06;100.00
71974;BME280;59840;52.122;5.404;2024-03-02T03:05:12;100072.09;;;7.05;100.00
71974;BME280;59840;52.122;5.404;2024-03-02T03:07:40;100060.31;;;7.07;100.00
71974;BME280;59840;52.122;5.404;2024-03-02T03:10:07;100058.41;;;7.03;100.00
71974;BME280;59840;52.122;5.404;2024-03-02T03:12:35;100058.97;;;7.05;100.00
71974;BME280;59840;52.122;5.404;2024-03-02T03:15:03;100061.59;;;7.05;100.00
71974;BME280;59840;52.122;5.404;2024-03-02T03:17:31;100053.66;;;7.00;100.00
71974;BME280;59840;52.122;5.404;2024-03-02T03:19:58;100057.31;;;6.99;100.00
71974;BME280;59840;52.122;5.404;2024-03-02T03:22:24;100055.16;;;6.96;100.00
71974;BME280;59840;52.122;5.404;2024-03-02T03:24:51;100063.53;;;6.93;100.00
71974;BME280;59840;52.122;5.404;2024-03-02T03:27:18;100070.28;;;6.89;100.00
71974;BME280;59840;52.122;5.404;2024-03-02T03:29:46;100072.34;;;6.87;100.00
71974;BME280;59840;52.122;5.404;2024-03-02T03:32:13;100071.22;;;6.83;100.00
71974;BME280;59840;52.122;5.404;2024-03-02T03:34:40;100078.06;;;6.84;100.00
71974;BME280;59840;52.122;5.404;2024-03-02T03:37:06;100072.25;;;6.82;100.00
71974;BME280;59840;52.122;5.404;2024-03-02T03:39:34;100075.34;;;6.79;100.00
71974;BME280;59840;52.122;5.404;2024-03-02T03:42:02;100076.84;;;6.75;100.00
71974;BME280;59840;52.122;5.404;2024-03-02T03:44:29;100075.28;;;6.73;100.00
71974;BME280;59840;52.122;5.404;2024-03-02T03:46:56;100067.97;;;6.76;100.00
71974;BME280;59840;52.122;5.404;2024-03-02T03:49:22;100081.16;;;6.81;100.00
71974;BME280;59840;52.122;5.404;2024-03-02T03:51:49;100086.16;;;6.82;100.00
71974;BME280;59840;52.122;5.404;2024-03-02T03:54:16;100083.31;;;6.84;100.00
71974;BME280;59840;52.122;5.404;2024-03-02T03:56:42;100096.50;;;6.89;100.00
71974;BME280;59840;52.122;5.404;2024-03-02T03:59:09;100084.97;;;6.90;100.00
71974;BME280;59840;52.122;5.404;2024-03-02T04:01:35;100085.78;;;6.90;100.00
71974;BME280;59840;52.122;5.404;2024-03-02T04:04:02;100079.78;;;6.95;100.00
71974;BME280;59840;52.122;5.404;2024-03-02T04:06:30;100075.91;;;6.97;100.00
71974;BME280;59840;52.122;5.404;2024-03-02T04:08:57;100087.97;;;6.98;100.00
71974;BME280;59840;52.122;5.404;2024-03-02T04:11:23;100087.97;;;6.98;100.00
71974;BME280;59840;52.122;5.404;2024-03-02T04:13:50;100094.56;;;7.01;100.00
71974;BME280;59840;52.122;5.404;2024-03-02T04:16:17;100093.53;;;7.02;100.00
71974;BME280;59840;52.122;5.404;2024-03-02T04:18:43;100094.34;;;7.02;100.00
71974;BME280;59840;52.122;5.404;2024-03-02T04:21:10;100104.84;;;7.02;100.00
71974;BME280;59840;52.122;5.404;2024-03-02T04:23:38;100097.75;;;7.03;100.00
71974;BME280;59840;52.122;5.404;2024-03-02T04:26:04;100097.75;;;7.03;100.00
71974;BME280;59840;52.122;5.404;2024-03-02T04:28:31;100100.16;;;7.04;100.00
71974;BME280;59840;52.122;5.404;2024-03-02T04:30:57;100093.88;;;7.05;100.00
71974;BME280;59840;52.122;5.404;2024-03-02T04:33:24;100099.66;;;7.07;100.00
71974;BME280;59840;52.122;5.404;2024-03-02T04:35:51;100108.34;;;7.08;100.00
71974;BME280;59840;52.122;5.404;2024-03-02T04:38:17;100105.94;;;7.06;100.00
71974;BME280;59840;52.122;5.404;2024-03-02T04:40:44;100106.75;;;7.07;100.00
71974;BME280;59840;52.122;5.404;2024-03-02T04:43:11;100106.50;;;7.09;100.00
71974;BME280;59840;52.122;5.404;2024-03-02T04:45:41;100109.38;;;7.07;100.00
71974;BME280;59840;52.122;5.404;2024-03-02T04:48:09;100118.28;;;7.06;100.00
71974;BME280;59840;52.122;5.404;2024-03-02T04:50:35;100120.09;;;7.05;100.00
71974;BME280;59840;52.122;5.404;2024-03-02T04:53:02;100116.22;;;7.08;100.00
71974;BME280;59840;52.122;5.404;2024-03-02T04:55:29;100125.66;;;7.09;100.00
71974;BME280;59840;52.122;5.404;2024-03-02T04:57:55;100126.16;;;7.06;100.00
71974;BME280;59840;52.122;5.404;2024-03-02T05:00:23;100128.22;;;7.04;100.00
71974;BME280;59840;52.122;5.404;2024-03-02T05:02:50;100131.31;;;7.01;100.00
71974;BME280;59840;52.122;5.404;2024-03-02T05:05:17;100127.66;;;7.02;100.00
71974;BME280;59840;52.122;5.404;2024-03-02T05:07:44;100137.34;;;7.01;100.00
71974;BME280;59840;52.122;5.404;2024-03-02T05:10:11;100138.38;;;7.00;100.00
71974;BME280;59840;52.122;5.404;2024-03-02T05:12:41;100142.81;;;7.00;100.00
71974;BME280;59840;52.122;5.404;2024-03-02T05:15:12;100136.78;;;6.99;100.00
71974;BME280;59840;52.122;5.404;2024-03-02T05:17:41;100141.78;;;7.01;100.00
71974;BME280;59840;52.122;5.404;2024-03-02T05:20:11;100142.81;;;7.00;100.00
71974;BME280;59840;52.122;5.404;2024-03-02T05:22:38;100138.13;;;7.02;100.00
71974;BME280;59840;52.122;5.404;2024-03-02T05:25:06;100139.16;;;7.01;100.00
71974;BME280;59840;52.122;5.404;2024-03-02T05:27:36;100133.69;;;7.02;100.00
71974;BME280;59840;52.122;5.404;2024-03-02T05:30:03;100141.56;;;7.02;100.00
71974;BME280;59840;52.122;5.404;2024-03-02T05:32:35;100146.00;;;7.02;100.00
71974;BME280;59840;52.122;5.404;2024-03-02T05:35:02;100146.00;;;7.02;100.00
71974;BME280;59840;52.122;5.404;2024-03-02T05:37:29;100149.66;;;7.01;100.00
71974;BME280;59840;52.122;5.404;2024-03-02T05:39:56;100150.47;;;7.01;100.00
71974;BME280;59840;52.122;5.404;2024-03-02T05:42:23;100141.22;;;6.99;100.00
71974;BME280;59840;52.122;5.404;2024-03-02T05:44:51;100144.28;;;6.91;100.00
71974;BME280;59840;52.122;5.404;2024-03-02T05:47:17;100145.91;;;6.80;100.00
71974;BME280;59840;52.122;5.404;2024-03-02T05:49:44;100142.31;;;6.69;100.00
71974;BME280;59840;52.122;5.404;2024-03-02T05:52:11;100142.78;;;6.66;100.00
71974;BME280;59840;52.122;5.404;2024-03-02T05:54:38;100152.13;;;6.62;100.00
71974;BME280;59840;52.122;5.404;2024-03-02T05:57:05;100143.56;;;6.67;100.00
71974;BME280;59840;52.122;5.404;2024-03-02T05:59:59;100149.38;;;6.69;100.00
71974;BME280;59840;52.122;5.404;2024-03-02T06:02:25;100151.19;;;6.68;100.00
71974;BME280;59840;52.122;5.404;2024-03-02T06:04:54;100145.97;;;6.68;100.00
71974;BME280;59840;52.122;5.404;2024-03-02T06:07:21;100163.03;;;6.71;100.00
71974;BME280;59840;52.122;5.404;2024-03-02T06:09:47;100162.56;;;6.74;100.00
71974;BME280;59840;52.122;5.404;2024-03-02T06:12:17;100171.25;;;6.75;100.00
71974;BME280;59840;52.122;5.404;2024-03-02T06:14:44;100168.28;;;6.71;100.00
71974;BME280;59840;52.122;5.404;2024-03-02T06:17:10;100171.72;;;6.71;100.00
71974;BME280;59840;52.122;5.404;2024-03-02T06:19:37;100178.53;;;6.72;100.00
71974;BME280;59840;52.122;5.404;2024-03-02T06:22:04;100171.72;;;6.71;100.00
71974;BME280;59840;52.122;5.404;2024-03-02T06:24:32;100181.97;;;6.73;100.00
71974;BME280;59840;52.122;5.404;2024-03-02T06:26:58;100181.72;;;6.75;100.00
71974;BME280;59840;52.122;5.404;2024-03-02T06:29:25;100184.34;;;6.75;100.00
71974;BME280;59840;52.122;5.404;2024-03-02T06:31:51;100185.16;;;6.75;100.00
71974;BME280;59840;52.122;5.404;2024-03-02T06:34:20;100188.91;;;6.79;100.00
71974;BME280;59840;52.122;5.404;2024-03-02T06:36:47;100195.25;;;6.83;100.00
71974;BME280;59840;52.122;5.404;2024-03-02T06:39:14;100196.16;;;6.89;100.00
71974;BME280;59840;52.122;5.404;2024-03-02T06:41:41;100205.16;;;6.93;100.00
71974;BME280;59840;52.122;5.404;2024-03-02T06:44:11;100195.84;;;7.02;100.00
71974;BME280;59840;52.122;5.404;2024-03-02T06:46:37;100200.28;;;7.01;100.00
71974;BME280;59840;52.122;5.404;2024-03-02T06:49:04;100199.13;;;7.09;100.00
71974;BME280;59840;52.122;5.404;2024-03-02T06:51:31;100193.56;;;7.22;100.00
71974;BME280;59840;52.122;5.404;2024-03-02T06:53:57;100193.50;;;7.17;100.00
71974;BME280;59840;52.122;5.404;2024-03-02T06:56:24;100197.00;;;7.23;100.00
71974;BME280;59840;52.122;5.404;2024-03-02T06:58:50;100198.06;;;8.16;100.00
71974;BME280;59840;52.122;5.404;2024-03-02T07:01:17;100193.09;;;8.85;98.91
71974;BME280;59840;52.122;5.404;2024-03-02T07:03:43;100196.72;;;9.37;94.85
71974;BME280;59840;52.122;5.404;2024-03-02T07:06:10;100194.41;;;9.46;94.14
71974;BME280;59840;52.122;5.404;2024-03-02T07:08:37;100186.81;;;9.50;91.96
71974;BME280;59840;52.122;5.404;2024-03-02T07:11:04;100196.69;;;9.32;91.66
71974;BME280;59840;52.122;5.404;2024-03-02T07:13:30;100198.31;;;8.80;93.44
71974;BME280;59840;52.122;5.404;2024-03-02T07:15:57;100198.00;;;9.03;93.34
71974;BME280;59840;52.122;5.404;2024-03-02T07:18:30;100197.94;;;8.93;93.02
71974;BME280;59840;52.122;5.404;2024-03-02T07:20:57;100197.06;;;8.60;94.26
71974;BME280;59840;52.122;5.404;2024-03-02T07:23:27;100197.38;;;8.42;95.24
71974;BME280;59840;52.122;5.404;2024-03-02T07:25:54;100206.16;;;8.31;95.59
71974;BME280;59840;52.122;5.404;2024-03-02T07:28:26;100206.91;;;8.26;95.46
71974;BME280;59840;52.122;5.404;2024-03-02T07:30:59;100205.31;;;8.25;95.92
71974;BME280;59840;52.122;5.404;2024-03-02T07:33:26;100212.47;;;8.30;97.01
71974;BME280;59840;52.122;5.404;2024-03-02T07:35:56;100217.00;;;8.34;96.02
71974;BME280;59840;52.122;5.404;2024-03-02T07:38:23;100215.16;;;8.35;96.15
71974;BME280;59840;52.122;5.404;2024-03-02T07:40:50;100219.38;;;8.36;97.40
71974;BME280;59840;52.122;5.404;2024-03-02T07:43:20;100215.78;;;8.42;96.35
71974;BME280;59840;52.122;5.404;2024-03-02T07:45:47;100225.75;;;8.40;96.07
71974;BME280;59840;52.122;5.404;2024-03-02T07:48:14;100221.50;;;8.39;96.24
71974;BME280;59840;52.122;5.404;2024-03-02T07:50:41;100227.75;;;8.33;95.50
71974;BME280;59840;52.122;5.404;2024-03-02T07:53:09;100222.66;;;8.26;96.05
71974;BME280;59840;52.122;5.404;2024-03-02T07:55:36;100222.75;;;8.15;96.88
71974;BME280;59840;52.122;5.404;2024-03-02T07:58:02;100221.59;;;8.05;97.00
71974;BME280;59840;52.122;5.404;2024-03-02T08:00:29;100225.97;;;8.00;97.31
71974;BME280;59840;52.122;5.404;2024-03-02T08:02:56;100236.59;;;7.88;97.43
71974;BME280;59840;52.122;5.404;2024-03-02T08:05:22;100231.75;;;7.80;96.96
71974;BME280;59840;52.122;5.404;2024-03-02T08:07:49;100231.09;;;7.73;97.27
71974;BME280;59840;52.122;5.404;2024-03-02T08:10:21;100238.19;;;7.72;97.69
71974;BME280;59840;52.122;5.404;2024-03-02T08:12:47;100248.94;;;7.71;97.93
71974;BME280;59840;52.122;5.404;2024-03-02T08:15:14;100240.97;;;7.66;98.16
71974;BME280;59840;52.122;5.404;2024-03-02T08:17:41;100243.03;;;7.64;97.81
71974;BME280;59840;52.122;5.404;2024-03-02T08:20:17;100251.16;;;7.62;98.07
71974;BME280;59840;52.122;5.404;2024-03-02T08:22:43;100256.41;;;7.62;98.57
71974;BME280;59840;52.122;5.404;2024-03-02T08:25:11;100248.06;;;7.65;99.10
71974;BME280;59840;52.122;5.404;2024-03-02T08:27:37;100246.53;;;7.69;99.48
71974;BME280;59840;52.122;5.404;2024-03-02T08:30:05;100247.81;;;7.84;99.68
71974;BME280;59840;52.122;5.404;2024-03-02T08:32:36;100250.66;;;7.99;99.07
71974;BME280;59840;52.122;5.404;2024-03-02T08:35:04;100241.88;;;8.10;98.17
71974;BME280;59840;52.122;5.404;2024-03-02T08:37:30;100246.41;;;8.15;97.81
71974;BME280;59840;52.122;5.404;2024-03-02T08:39:57;100243.38;;;8.23;98.29
71974;BME280;59840;52.122;5.404;2024-03-02T08:42:24;100247.41;;;8.30;97.28
71974;BME280;59840;52.122;5.404;2024-03-02T08:44:51;100246.38;;;8.31;96.48
71974;BME280;59840;52.122;5.404;2024-03-02T08:47:18;100246.16;;;8.33;96.68
71974;BME280;59840;52.122;5.404;2024-03-02T08:49:44;100246.69;;;8.35;97.58
71974;BME280;59840;52.122;5.404;2024-03-02T08:52:11;100244.44;;;8.44;97.13
71974;BME280;59840;52.122;5.404;2024-03-02T08:54:38;100242.13;;;8.47;97.16
71974;BME280;59840;52.122;5.404;2024-03-02T08:57:05;100243.72;;;8.48;95.99
71974;BME280;59840;52.122;5.404;2024-03-02T08:59:32;100246.41;;;8.53;95.82
71974;BME280;59840;52.122;5.404;2024-03-02T09:02:01;100252.78;;;8.57;95.58
71974;BME280;59840;52.122;5.404;2024-03-02T09:04:28;100246.47;;;8.58;95.73
71974;BME280;59840;52.122;5.404;2024-03-02T09:06:59;100237.38;;;8.66;94.84
71974;BME280;59840;52.122;5.404;2024-03-02T09:09:26;100245.53;;;8.69;95.75
71974;BME280;59840;52.122;5.404;2024-03-02T09:11:53;100237.94;;;8.73;95.23
71974;BME280;59840;52.122;5.404;2024-03-02T09:14:21;100243.47;;;8.71;94.61
71974;BME280;59840;52.122;5.404;2024-03-02T09:16:48;100240.81;;;8.71;93.95
71974;BME280;59840;52.122;5.404;2024-03-02T09:19:14;100249.25;;;8.73;93.53
71974;BME280;59840;52.122;5.404;2024-03-02T09:21:42;100249.63;;;8.82;93.13
71974;BME280;59840;52.122;5.404;2024-03-02T09:24:10;100244.69;;;8.86;92.63
71974;BME280;59840;52.122;5.404;2024-03-02T09:26:38;100251.28;;;8.88;91.60
71974;BME280;59840;52.122;5.404;2024-03-02T09:29:05;100242.59;;;8.88;90.34
71974;BME280;59840;52.122;5.404;2024-03-02T09:31:32;100252.81;;;8.84;90.30
71974;BME280;59840;52.122;5.404;2024-03-02T09:33:58;100254.72;;;8.89;91.14
71974;BME280;59840;52.122;5.404;2024-03-02T09:36:25;100254.28;;;8.97;89.15
71974;BME280;59840;52.122;5.404;2024-03-02T09:38:51;100249.31;;;9.00;89.62
71974;BME280;59840;52.122;5.404;2024-03-02T09:41:18;100246.41;;;9.02;88.71
71974;BME280;59840;52.122;5.404;2024-03-02T09:43:46;100257.72;;;9.02;88.74
71974;BME280;59840;52.122;5.404;2024-03-02T09:46:12;100256.44;;;9.05;88.59
71974;BME280;59840;52.122;5.404;2024-03-02T09:48:39;100255.44;;;9.11;88.08
71974;BME280;59840;52.122;5.404;2024-03-02T09:51:06;100261.00;;;9.15;86.65
71974;BME280;59840;52.122;5.404;2024-03-02T09:53:37;100267.06;;;9.15;86.69
71974;BME280;59840;52.122;5.404;2024-03-02T09:56:03;100254.25;;;9.24;85.35
71974;BME280;59840;52.122;5.404;2024-03-02T09:58:31;100257.19;;;9.27;84.63
71974;BME280;59840;52.122;5.404;2024-03-02T10:00:57;100255.91;;;9.30;84.99
71974;BME280;59840;52.122;5.404;2024-03-02T10:03:24;100260.13;;;9.31;84.86
71974;BME280;59840;52.122;5.404;2024-03-02T10:05:51;100253.56;;;9.33;84.32
71974;BME280;59840;52.122;5.404;2024-03-02T10:08:18;100265.97;;;9.38;83.80
71974;BME280;59840;52.122;5.404;2024-03-02T10:10:44;100258.84;;;9.38;84.28
71974;BME280;59840;52.122;5.404;2024-03-02T10:13:13;100262.53;;;9.37;84.30
71974;BME280;59840;52.122;5.404;2024-03-02T10:15:41;100255.78;;;9.47;83.27
71974;BME280;59840;52.122;5.404;2024-03-02T10:18:10;100246.34;;;9.51;83.66
71974;BME280;59840;52.122;5.404;2024-03-02T10:20:38;100250.34;;;9.58;84.38
71974;BME280;59840;52.122;5.404;2024-03-02T10:23:15;100253.81;;;9.64;84.44
71974;BME280;59840;52.122;5.404;2024-03-02T10:25:44;100251.78;;;9.76;84.84
71974;BME280;59840;52.122;5.404;2024-03-02T10:28:23;100263.66;;;9.79;81.03
71974;BME280;59840;52.122;5.404;2024-03-02T10:30:49;100258.09;;;9.75;81.99
71974;BME280;59840;52.122;5.404;2024-03-02T10:33:18;100258.13;;;9.80;82.09
71974;BME280;59840;52.122;5.404;2024-03-02T10:35:46;100247.63;;;9.85;81.71
71974;BME280;59840;52.122;5.404;2024-03-02T10:38:15;100242.41;;;9.90;82.34
71974;BME280;59840;52.122;5.404;2024-03-02T10:40:46;100248.72;;;9.89;81.13
71974;BME280;59840;52.122;5.404;2024-03-02T10:43:13;100243.44;;;9.89;81.03
71974;BME280;59840;52.122;5.404;2024-03-02T10:45:40;100236.34;;;9.90;81.71
71974;BME280;59840;52.122;5.404;2024-03-02T10:48:07;100229.47;;;9.89;80.49
71974;BME280;59840;52.122;5.404;2024-03-02T10:50:34;100234.28;;;9.97;80.57
71974;BME280;59840;52.122;5.404;2024-03-02T10:53:01;100225.06;;;9.99;81.03
71974;BME280;59840;52.122;5.404;2024-03-02T10:55:27;100220.59;;;10.00;79.27
71974;BME280;59840;52.122;5.404;2024-03-02T10:57:54;100215.06;;;10.01;80.31
71974;BME280;59840;52.122;5.404;2024-03-02T11:00:25;100209.28;;;10.04;79.00
71974;BME280;59840;52.122;5.404;2024-03-02T11:02:59;100217.47;;;10.13;79.43
71974;BME280;59840;52.122;5.404;2024-03-02T11:05:31;100207.19;;;10.12;80.15
71974;BME280;59840;52.122;5.404;2024-03-02T11:08:06;100221.50;;;10.21;80.12
71974;BME280;59840;52.122;5.404;2024-03-02T11:10:39;100214.16;;;10.28;79.14
71974;BME280;59840;52.122;5.404;2024-03-02T11:13:12;100214.44;;;10.26;77.75
71974;BME280;59840;52.122;5.404;2024-03-02T11:15:40;100219.19;;;10.29;78.05
71974;BME280;59840;52.122;5.404;2024-03-02T11:18:08;100220.81;;;10.35;78.22
71974;BME280;59840;52.122;5.404;2024-03-02T11:20:38;100225.28;;;10.35;78.38
71974;BME280;59840;52.122;5.404;2024-03-02T11:23:07;100227.16;;;10.39;76.92
71974;BME280;59840;52.122;5.404;2024-03-02T11:25:34;100224.78;;;10.38;77.27
71974;BME280;59840;52.122;5.404;2024-03-02T11:28:03;100230.28;;;10.31;77.63
71974;BME280;59840;52.122;5.404;2024-03-02T11:33:04;100224.00;;;10.48;77.15
71974;BME280;59840;52.122;5.404;2024-03-02T11:35:42;100220.88;;;10.56;75.39
71974;BME280;59840;52.122;5.404;2024-03-02T11:38:10;100216.41;;;10.61;74.32
71974;BME280;59840;52.122;5.404;2024-03-02T11:40:39;100207.47;;;10.67;74.15
71974;BME280;59840;52.122;5.404;2024-03-02T11:43:07;100213.25;;;10.74;73.90
71974;BME280;59840;52.122;5.404;2024-03-02T11:45:35;100208.78;;;10.70;74.60
71974;BME280;59840;52.122;5.404;2024-03-02T11:48:08;100204.56;;;10.79;74.36
71974;BME280;59840;52.122;5.404;2024-03-02T11:50:41;100218.03;;;10.78;74.71
71974;BME280;59840;52.122;5.404;2024-03-02T11:53:09;100194.03;;;10.74;76.06
71974;BME280;59840;52.122;5.404;2024-03-02T11:55:37;100195.59;;;10.80;72.86
71974;BME280;59840;52.122;5.404;2024-03-02T11:58:04;100190.06;;;10.87;71.49
71974;BME280;59840;52.122;5.404;2024-03-02T12:00:31;100193.25;;;10.89;71.50
71974;BME280;59840;52.122;5.404;2024-03-02T12:03:05;100193.50;;;10.92;71.09
71974;BME280;59840;52.122;5.404;2024-03-02T12:05:33;100191.66;;;10.93;71.43
71974;BME280;59840;52.122;5.404;2024-03-02T12:08:02;100191.41;;;10.99;71.94
71974;BME280;59840;52.122;5.404;2024-03-02T12:10:30;100184.56;;;11.08;71.73
71974;BME280;59840;52.122;5.404;2024-03-02T12:12:58;100168.97;;;11.17;70.86
71974;BME280;59840;52.122;5.404;2024-03-02T12:15:35;100176.63;;;11.29;71.72
71974;BME280;59840;52.122;5.404;2024-03-02T12:18:06;100180.06;;;11.34;69.99
71974;BME280;59840;52.122;5.404;2024-03-02T12:20:33;100165.28;;;11.28;68.29
71974;BME280;59840;52.122;5.404;2024-03-02T12:23:02;100177.16;;;11.26;70.45
71974;BME280;59840;52.122;5.404;2024-03-02T12:25:30;100171.09;;;11.25;71.14
71974;BME280;59840;52.122;5.404;2024-03-02T12:28:00;100171.63;;;11.22;71.06
71974;BME280;59840;52.122;5.404;2024-03-02T12:30:30;100165.28;;;11.28;71.16
71974;BME280;59840;52.122;5.404;2024-03-02T12:32:57;100156.56;;;11.38;69.84
71974;BME280;59840;52.122;5.404;2024-03-02T12:35:25;100165.28;;;11.38;70.76
71974;BME280;59840;52.122;5.404;2024-03-02T12:37:53;100170.84;;;11.42;70.30
71974;BME280;59840;52.122;5.404;2024-03-02T12:40:20;100163.66;;;11.48;69.62
71974;BME280;59840;52.122;5.404;2024-03-02T12:42:50;100167.09;;;11.48;69.64
71974;BME280;59840;52.122;5.404;2024-03-02T12:45:17;100152.81;;;11.59;71.06
71974;BME280;59840;52.122;5.404;2024-03-02T12:47:51;100146.72;;;11.69;70.76
71974;BME280;59840;52.122;5.404;2024-03-02T12:50:19;100145.69;;;11.70;70.85
71974;BME280;59840;52.122;5.404;2024-03-02T12:52:53;100137.50;;;11.66;71.12
71974;BME280;59840;52.122;5.404;2024-03-02T12:55:21;100133.25;;;11.65;70.88
71974;BME280;59840;52.122;5.404;2024-03-02T12:57:52;100129.28;;;11.68;71.09
71974;BME280;59840;52.122;5.404;2024-03-02T13:00:20;100127.72;;;11.62;70.96
71974;BME280;59840;52.122;5.404;2024-03-02T13:02:48;100124.03;;;11.63;70.40
71974;BME280;59840;52.122;5.404;2024-03-02T13:05:18;100123.47;;;11.66;71.08
71974;BME280;59840;52.122;5.404;2024-03-02T13:07:47;100121.91;;;11.70;69.00